createdAt,value
2019-02-26T00:01:18.537Z,17.33
2019-02-26T00:03:53.420Z,13.13
2019-02-26T00:06:23.375Z,15.87
2019-02-26T00:09:03.747Z,17.33
2019-02-26T00:11:41.838Z,14.57
2019-02-26T00:14:13.135Z,16.27
2019-02-26T00:16:42.429Z,18.70
2019-02-26T00:19:18.049Z,17.80
2019-02-26T00:21:47.921Z,13.13
2019-02-26T00:24:16.797Z,12.67
2019-02-26T00:26:58.603Z,10.63
2019-02-26T00:29:46.453Z,10.97
2019-02-26T00:32:25.764Z,9.33
2019-02-26T00:37:55.866Z,7.77
2019-02-26T00:40:24.127Z,11.23
2019-02-26T00:43:04.773Z,9.30
2019-02-26T00:45:34.024Z,11.13
2019-02-26T00:48:09.666Z,10.17
2019-02-26T00:53:59.741Z,9.00
2019-02-26T00:56:36.340Z,8.93
2019-02-26T00:59:14.612Z,9.53
2019-02-26T01:01:46.002Z,11.77
2019-02-26T01:04:19.529Z,11.53
2019-02-26T01:10:18.163Z,12.03
2019-02-26T01:12:52.357Z,8.83
2019-02-26T01:15:32.411Z,9.67
2019-02-26T01:18:01.457Z,10.80
2019-02-26T01:20:36.598Z,13.23
2019-02-26T01:26:36.996Z,14.90
2019-02-26T01:32:08.891Z,11.83
2019-02-26T01:34:47.827Z,14.03
2019-02-26T01:40:45.639Z,11.40
2019-02-26T01:43:19.031Z,13.03
2019-02-26T01:45:48.624Z,17.00
2019-02-26T01:48:27.150Z,16.33
2019-02-26T01:50:57.472Z,18.23
2019-02-26T01:53:32.719Z,13.30
2019-02-26T01:56:04.599Z,15.53
2019-02-26T01:59:19.009Z,16.20
2019-02-26T02:04:57.166Z,15.90
2019-02-26T02:07:25.967Z,16.30
2019-02-26T02:13:07.086Z,13.10
2019-02-26T02:15:44.423Z,11.87
2019-02-26T02:18:25.343Z,14.43
2019-02-26T02:21:00.401Z,16.13
2019-02-26T02:23:30.239Z,15.83
2019-02-26T02:26:07.113Z,14.27
2019-02-26T02:28:41.505Z,15.83
2019-02-26T02:31:52.155Z,16.87
2019-02-26T02:34:29.445Z,15.27
2019-02-26T02:40:04.961Z,13.07
2019-02-26T02:42:34.905Z,15.73
2019-02-26T02:45:17.048Z,13.47
2019-02-26T02:47:43.885Z,12.83
2019-02-26T02:50:15.337Z,16.53
2019-02-26T02:52:50.954Z,15.37
2019-02-26T02:55:25.326Z,17.23
2019-02-26T03:01:16.506Z,25.17
2019-02-26T03:03:56.444Z,22.90
2019-02-26T03:06:32.606Z,21.67
2019-02-26T03:09:43.196Z,24.47
2019-02-26T03:12:32.454Z,20.23
2019-02-26T03:15:02.465Z,19.00
2019-02-26T03:17:31.447Z,21.03
2019-02-26T03:20:19.175Z,24.00
2019-02-26T03:25:49.872Z,25.90
2019-02-26T03:28:23.895Z,22.20
2019-02-26T03:31:11.421Z,23.37
2019-02-26T03:33:39.325Z,22.57
2019-02-26T03:36:08.559Z,20.67
2019-02-26T03:38:44.030Z,18.17
2019-02-26T03:44:03.413Z,22.20
2019-02-26T03:47:19.514Z,28.53
2019-02-26T03:49:48.475Z,24.40
2019-02-26T03:52:16.813Z,28.43
2019-02-26T03:54:47.393Z,29.67
2019-02-26T03:57:22.738Z,30.50
2019-02-26T03:59:51.585Z,41.27
2019-02-26T04:02:20.923Z,45.37
2019-02-26T04:05:00.768Z,40.30
2019-02-26T04:08:22.099Z,19.73
2019-02-26T04:11:07.965Z,17.67
2019-02-26T04:13:36.195Z,19.47
2019-02-26T04:16:04.708Z,18.57
2019-02-26T04:18:34.752Z,18.10
2019-02-26T04:21:05.929Z,15.03
2019-02-26T04:23:42.119Z,19.97
2019-02-26T04:26:44.070Z,18.93
2019-02-26T04:29:50.376Z,16.13
2019-02-26T04:32:57.029Z,17.97
2019-02-26T04:36:03.722Z,16.50
2019-02-26T04:39:08.407Z,16.73
2019-02-26T04:42:21.591Z,16.00
2019-02-26T04:45:28.201Z,18.63
2019-02-26T04:51:39.110Z,15.70
2019-02-26T04:54:17.492Z,16.07
2019-02-26T04:57:30.228Z,17.47
2019-02-26T05:00:01.051Z,19.20
2019-02-26T05:02:29.086Z,18.17
2019-02-26T05:04:57.378Z,17.30
2019-02-26T05:07:25.349Z,17.17
2019-02-26T05:10:12.563Z,17.33
2019-02-26T05:12:40.735Z,18.50
2019-02-26T05:15:13.967Z,18.07
2019-02-26T05:17:46.220Z,22.27
2019-02-26T05:20:16.558Z,16.37
2019-02-26T05:22:52.024Z,19.33
2019-02-26T05:25:21.481Z,20.93
2019-02-26T05:27:50.930Z,19.60
2019-02-26T05:30:26.654Z,17.77
2019-02-26T05:32:57.960Z,18.33
2019-02-26T05:38:54.058Z,29.40
2019-02-26T05:41:21.808Z,40.87
2019-02-26T05:43:55.257Z,31.53
2019-02-26T05:46:29.377Z,26.77
2019-02-26T05:49:05.519Z,23.17
2019-02-26T05:51:39.265Z,23.87
2019-02-26T06:00:08.327Z,22.00
2019-02-26T06:02:47.295Z,23.13
2019-02-26T06:05:32.356Z,20.87
2019-02-26T06:08:00.665Z,25.23
2019-02-26T06:13:32.441Z,23.70
2019-02-26T06:16:07.664Z,19.20
2019-02-26T06:18:46.509Z,25.07
2019-02-26T06:24:22.762Z,20.87
2019-02-26T06:26:56.771Z,20.83
2019-02-26T06:29:37.416Z,29.60
2019-02-26T06:32:27.430Z,32.53
2019-02-26T06:35:01.312Z,34.43
2019-02-26T06:37:31.339Z,42.27
2019-02-26T06:40:00.654Z,44.43
2019-02-26T06:43:19.707Z,47.40
2019-02-26T06:45:47.970Z,44.07
2019-02-26T06:48:19.331Z,47.67
2019-02-26T06:50:55.652Z,40.03
2019-02-26T06:53:30.105Z,34.13
2019-02-26T06:55:58.565Z,31.97
2019-02-26T06:58:40.579Z,26.93
2019-02-26T07:01:28.233Z,24.77
2019-02-26T07:03:56.842Z,26.63
2019-02-26T07:06:34.823Z,24.47
2019-02-26T07:09:15.268Z,25.17
2019-02-26T07:11:50.246Z,27.77
2019-02-26T07:14:18.926Z,25.93
2019-02-26T07:16:46.851Z,30.43
2019-02-26T07:19:16.603Z,30.43
2019-02-26T07:21:53.048Z,28.53
2019-02-26T07:24:23.047Z,26.73
2019-02-26T07:30:15.269Z,27.33
2019-02-26T07:32:45.523Z,26.63
2019-02-26T07:35:19.434Z,38.10
2019-02-26T07:37:47.721Z,46.93
2019-02-26T07:40:16.366Z,34.47
2019-02-26T07:45:54.747Z,38.30
2019-02-26T07:48:23.813Z,29.27
2019-02-26T07:50:58.670Z,27.27
2019-02-26T07:53:26.947Z,26.17
2019-02-26T07:55:56.870Z,31.00
2019-02-26T07:58:33.290Z,28.27
2019-02-26T08:01:08.816Z,28.23
2019-02-26T08:06:38.536Z,26.07
2019-02-26T08:09:16.478Z,27.33
2019-02-26T08:11:46.942Z,29.93
2019-02-26T08:15:05.673Z,24.70
2019-02-26T08:21:02.473Z,25.90
2019-02-26T08:23:36.958Z,25.80
2019-02-26T08:26:05.127Z,24.27
2019-02-26T08:28:33.796Z,26.17
2019-02-26T08:31:02.377Z,28.93
2019-02-26T08:33:30.648Z,28.27
2019-02-26T08:35:58.906Z,26.27
2019-02-26T08:38:30.037Z,28.73
2019-02-26T08:41:04.070Z,35.07
2019-02-26T08:44:12.700Z,26.83
2019-02-26T08:50:01.925Z,27.17
2019-02-26T08:52:41.019Z,26.00
2019-02-26T08:55:24.385Z,22.27
2019-02-26T09:00:49.816Z,18.83
2019-02-26T09:04:00.650Z,14.07
2019-02-26T09:06:38.744Z,13.10
2019-02-26T09:09:48.125Z,15.27
2019-02-26T09:12:24.722Z,15.77
2019-02-26T09:15:00.448Z,16.63
2019-02-26T09:17:30.477Z,14.57
2019-02-26T09:20:47.354Z,12.73
2019-02-26T09:29:19.522Z,10.70
2019-02-26T09:38:00.110Z,9.60
2019-02-26T09:40:26.644Z,10.17
2019-02-26T09:42:58.202Z,7.10
2019-02-26T09:49:10.504Z,9.00
2019-02-26T09:57:22.815Z,7.80
2019-02-26T09:59:58.186Z,6.07
2019-02-26T10:02:32.396Z,4.57
2019-02-26T10:05:00.283Z,5.33
2019-02-26T10:07:30.675Z,5.83
2019-02-26T10:10:06.518Z,5.90
2019-02-26T10:12:41.619Z,5.67
2019-02-26T10:15:22.142Z,4.17
2019-02-26T10:17:49.954Z,5.10
2019-02-26T10:20:58.971Z,4.50
2019-02-26T10:23:29.087Z,4.60
2019-02-26T10:26:44.215Z,6.80
2019-02-26T10:29:45.090Z,4.17
2019-02-26T10:35:33.307Z,5.53
2019-02-26T10:38:00.437Z,3.33
2019-02-26T10:46:32.122Z,3.50
2019-02-26T10:49:09.809Z,4.07
2019-02-26T10:51:42.402Z,3.83
2019-02-26T10:54:17.947Z,3.50
2019-02-26T10:56:45.138Z,5.00
2019-02-26T10:59:32.723Z,3.50
2019-02-26T11:02:03.054Z,5.40
2019-02-26T11:04:52.708Z,3.62
2019-02-26T11:10:43.977Z,4.60
2019-02-26T11:13:18.212Z,3.37
2019-02-26T11:16:05.319Z,3.67
2019-02-26T11:21:57.607Z,3.08
2019-02-26T11:24:33.496Z,3.47
2019-02-26T11:27:00.799Z,4.50
2019-02-26T11:35:39.651Z,5.67
2019-02-26T11:38:16.926Z,3.90
2019-02-26T11:44:07.545Z,5.27
2019-02-26T11:46:46.747Z,3.37
2019-02-26T11:49:37.016Z,5.30
2019-02-26T11:52:12.535Z,3.40
2019-02-26T11:57:45.158Z,4.53
2019-02-26T12:01:00.766Z,3.53
2019-02-26T12:03:32.760Z,5.50
2019-02-26T12:09:40.782Z,4.67
2019-02-26T12:12:16.144Z,4.27
2019-02-26T12:14:46.670Z,5.93
2019-02-26T12:21:05.384Z,3.77
2019-02-26T12:26:52.850Z,4.40
2019-02-26T12:29:34.772Z,4.53
2019-02-26T12:35:14.749Z,3.90
2019-02-26T12:38:22.980Z,3.00
2019-02-26T12:40:53.411Z,3.03
2019-02-26T12:43:30.154Z,4.03
2019-02-26T12:52:09.114Z,3.10
2019-02-26T12:55:17.327Z,2.80
2019-02-26T12:57:47.136Z,3.80
2019-02-26T13:03:19.836Z,4.33
2019-02-26T13:05:55.864Z,3.50
2019-02-26T13:08:24.386Z,5.17
2019-02-26T13:11:14.016Z,4.97
2019-02-26T13:17:08.608Z,3.57
2019-02-26T13:19:58.889Z,5.20
2019-02-26T13:22:35.394Z,4.17
2019-02-26T13:28:05.507Z,4.37
2019-02-26T13:33:37.462Z,3.27
2019-02-26T13:36:04.825Z,4.03
2019-02-26T13:38:44.707Z,3.10
2019-02-26T13:41:38.338Z,4.03
2019-02-26T13:44:32.932Z,2.73
2019-02-26T13:47:01.213Z,3.47
2019-02-26T13:50:09.801Z,3.73
2019-02-26T13:52:38.104Z,4.43
2019-02-26T13:55:46.896Z,3.33
2019-02-26T13:58:15.250Z,4.83
2019-02-26T14:01:23.835Z,3.77
2019-02-26T14:03:52.533Z,3.57
2019-02-26T14:07:01.202Z,4.90
2019-02-26T14:09:48.446Z,5.33
2019-02-26T14:13:05.008Z,4.33
2019-02-26T14:18:53.628Z,3.27
2019-02-26T14:22:01.867Z,5.17
2019-02-26T14:27:31.344Z,4.40
2019-02-26T14:33:42.065Z,5.00
2019-02-26T14:36:10.003Z,6.63
2019-02-26T14:38:38.485Z,7.10
2019-02-26T14:41:07.075Z,5.30
2019-02-26T14:43:35.922Z,3.97
2019-02-26T14:46:04.584Z,5.87
2019-02-26T14:51:34.961Z,7.20
2019-02-26T14:54:03.181Z,7.10
2019-02-26T14:56:31.830Z,15.27
2019-02-26T14:59:00.148Z,15.47
2019-02-26T15:01:28.613Z,6.03
2019-02-26T15:06:58.414Z,5.13
2019-02-26T15:09:27.169Z,7.93
2019-02-26T15:12:06.719Z,7.63
2019-02-26T15:15:06.874Z,6.33
2019-02-26T15:17:34.832Z,5.93
2019-02-26T15:20:03.424Z,5.27
2019-02-26T15:22:31.710Z,7.10
2019-02-26T15:25:00.332Z,5.17
2019-02-26T15:27:35.969Z,6.43
2019-02-26T15:30:46.038Z,7.13
2019-02-26T15:33:14.714Z,8.47
2019-02-26T15:36:02.001Z,9.50
2019-02-26T15:38:30.897Z,13.43
2019-02-26T15:41:39.185Z,13.50
2019-02-26T15:47:09.193Z,16.63
2019-02-26T15:49:44.540Z,15.27
2019-02-26T15:52:12.476Z,18.03
2019-02-26T15:54:40.322Z,18.63
2019-02-26T15:57:08.192Z,22.00
2019-02-26T15:59:36.540Z,17.60
2019-02-26T16:02:04.804Z,18.63
2019-02-26T16:04:33.340Z,23.67
2019-02-26T16:07:01.873Z,21.17
2019-02-26T16:09:30.528Z,22.07
2019-02-26T16:11:58.098Z,19.37
2019-02-26T16:14:26.365Z,19.70
2019-02-26T16:16:55.055Z,17.80
2019-02-26T16:19:23.906Z,17.00
2019-02-26T16:21:52.428Z,16.03
2019-02-26T16:24:21.137Z,17.77
2019-02-26T16:26:49.415Z,14.57
2019-02-26T16:29:18.798Z,15.23
2019-02-26T16:31:47.817Z,19.63
2019-02-26T16:34:17.483Z,19.07
2019-02-26T16:36:56.331Z,16.43
2019-02-26T16:43:06.561Z,17.03
2019-02-26T16:45:46.423Z,14.77
2019-02-26T16:50:54.089Z,28.17
2019-02-26T16:54:04.767Z,33.83
2019-02-26T16:56:42.808Z,51.40
2019-02-26T16:59:11.381Z,62.03
2019-02-26T17:01:41.569Z,61.77
2019-02-26T17:04:10.127Z,71.77
2019-02-26T17:06:38.479Z,75.07
2019-02-26T17:09:07.691Z,95.93
2019-02-26T17:11:35.954Z,89.70
2019-02-26T17:14:04.655Z,60.97
2019-02-26T17:16:32.636Z,23.37
2019-02-26T17:19:00.812Z,18.40
2019-02-26T17:21:30.674Z,16.33
2019-02-26T17:23:58.443Z,11.13
2019-02-26T17:26:26.364Z,11.17
2019-02-26T17:28:54.998Z,19.87
2019-02-26T17:31:22.541Z,19.50
2019-02-26T17:33:51.124Z,18.27
2019-02-26T17:36:19.808Z,21.40
2019-02-26T17:38:51.544Z,17.47
2019-02-26T17:41:17.944Z,19.27
2019-02-26T17:43:46.183Z,23.87
2019-02-26T17:46:14.652Z,36.23
2019-02-26T17:48:43.874Z,25.30
2019-02-26T17:51:12.528Z,22.83
2019-02-26T17:53:41.015Z,28.63
2019-02-26T17:56:09.378Z,32.17
2019-02-26T17:58:37.315Z,26.33
2019-02-26T18:01:06.109Z,21.07
2019-02-26T18:03:34.340Z,28.87
2019-02-26T18:06:02.999Z,26.10
2019-02-26T18:08:31.344Z,27.40
2019-02-26T18:10:59.314Z,27.93
2019-02-26T18:13:27.647Z,27.33
2019-02-26T18:15:56.973Z,22.70
2019-02-26T18:18:34.257Z,28.20
2019-02-26T18:21:11.094Z,27.00
2019-02-26T18:23:38.696Z,32.77
2019-02-26T18:26:07.069Z,25.17
2019-02-26T18:28:36.789Z,22.83
2019-02-26T18:31:05.691Z,19.80
2019-02-26T18:33:36.205Z,15.20
2019-02-26T18:36:11.356Z,17.83
2019-02-26T18:38:40.068Z,18.27
2019-02-26T18:44:10.358Z,15.47
2019-02-26T18:46:39.182Z,14.93
2019-02-26T18:49:07.424Z,15.43
2019-02-26T18:51:36.495Z,19.87
2019-02-26T18:54:05.189Z,17.33
2019-02-26T18:56:36.350Z,18.43
2019-02-26T18:59:10.279Z,19.63
2019-02-26T19:01:38.994Z,19.20
2019-02-26T19:04:07.164Z,21.27
2019-02-26T19:06:35.797Z,19.63
2019-02-26T19:12:25.559Z,18.23
2019-02-26T19:14:53.894Z,28.87
2019-02-26T19:17:21.937Z,30.53
2019-02-26T19:19:50.635Z,24.47
2019-02-26T19:22:18.566Z,25.17
2019-02-26T19:24:46.739Z,30.40
2019-02-26T19:27:16.874Z,21.77
2019-02-26T19:29:52.724Z,18.67
2019-02-26T19:32:21.296Z,17.00
2019-02-26T19:34:49.561Z,18.33
2019-02-26T19:37:19.120Z,21.87
2019-02-26T19:39:47.914Z,27.77
2019-02-26T19:42:17.544Z,33.20
2019-02-26T19:45:33.014Z,26.63
2019-02-26T19:48:09.846Z,22.33
2019-02-26T19:50:38.030Z,26.10
2019-02-26T19:53:06.730Z,24.00
2019-02-26T19:55:36.078Z,22.77
2019-02-26T19:58:06.803Z,22.13
2019-02-26T20:00:41.380Z,22.20
2019-02-26T20:03:09.384Z,22.27
2019-02-26T20:05:37.462Z,28.33
2019-02-26T20:08:06.098Z,21.63
2019-02-26T20:10:49.129Z,24.67
2019-02-26T20:13:23.036Z,31.27
2019-02-26T20:19:12.468Z,26.17
2019-02-26T20:21:41.231Z,26.73
2019-02-26T20:24:09.940Z,27.67
2019-02-26T20:26:37.979Z,31.40
2019-02-26T20:29:07.764Z,31.23
2019-02-26T20:31:44.177Z,29.33
2019-02-26T20:34:24.432Z,28.97
2019-02-26T20:37:12.136Z,29.03
2019-02-26T20:39:52.244Z,28.97
2019-02-26T20:45:30.090Z,29.30
2019-02-26T20:51:01.250Z,29.57
2019-02-26T20:53:30.614Z,30.27
2019-02-26T20:55:59.036Z,31.37
2019-02-26T20:58:27.624Z,25.97
2019-02-26T21:00:58.619Z,25.10
2019-02-26T21:03:33.194Z,28.10
2019-02-26T21:06:01.098Z,23.10
2019-02-26T21:08:30.965Z,24.10
2019-02-26T21:11:48.814Z,22.37
2019-02-26T21:14:38.674Z,33.17
2019-02-26T21:17:13.425Z,31.77
2019-02-26T21:20:01.100Z,42.33
2019-02-26T21:23:10.445Z,38.10
2019-02-26T21:25:58.577Z,28.83
2019-02-26T21:31:29.470Z,40.57
2019-02-26T21:34:17.326Z,36.50
2019-02-26T21:40:04.716Z,44.07
2019-02-26T21:42:53.006Z,39.50
2019-02-26T21:45:20.902Z,42.77
2019-02-26T21:48:08.819Z,42.97
2019-02-26T21:50:48.752Z,42.37
2019-02-26T21:53:17.259Z,39.00
2019-02-26T21:55:45.223Z,37.57
2019-02-26T21:58:56.961Z,36.80
2019-02-26T22:01:47.036Z,38.70
2019-02-26T22:04:16.533Z,39.83
2019-02-26T22:10:07.089Z,43.03
2019-02-26T22:13:02.981Z,40.50
2019-02-26T22:15:50.661Z,44.80
2019-02-26T22:18:38.251Z,60.30
2019-02-26T22:21:06.111Z,59.73
2019-02-26T22:23:34.322Z,54.30
2019-02-26T22:26:14.049Z,55.30
2019-02-26T22:28:42.672Z,46.70
2019-02-26T22:31:10.602Z,42.40
2019-02-26T22:33:40.723Z,36.00
2019-02-26T22:36:15.418Z,38.03
2019-02-26T22:39:14.845Z,31.37
2019-02-26T22:44:45.020Z,22.93
2019-02-26T22:47:13.655Z,23.77
2019-02-26T22:49:53.771Z,28.07
2019-02-26T22:52:30.658Z,27.93
2019-02-26T22:55:03.799Z,27.03
2019-02-26T22:57:32.378Z,26.00
2019-02-26T23:00:00.764Z,28.20
2019-02-26T23:05:30.535Z,30.47
2019-02-26T23:08:39.165Z,25.60
2019-02-26T23:14:27.345Z,23.07
2019-02-26T23:16:55.924Z,28.00
2019-02-26T23:19:23.801Z,26.47
2019-02-26T23:21:52.264Z,27.50
2019-02-26T23:24:20.873Z,18.23
2019-02-26T23:26:49.081Z,20.73
2019-02-26T23:29:17.651Z,19.90
2019-02-26T23:31:45.199Z,18.67
2019-02-26T23:34:13.397Z,23.00
2019-02-26T23:36:41.594Z,27.37
2019-02-26T23:42:11.540Z,22.47
2019-02-26T23:44:39.844Z,20.93
2019-02-26T23:47:07.750Z,25.07
2019-02-26T23:49:35.700Z,24.90
2019-02-26T23:52:03.895Z,21.33
2019-02-26T23:54:32.171Z,20.33
2019-02-26T23:57:00.784Z,21.53
2019-02-26T23:59:29.035Z,21.13
